createdAt,value
2022-12-04T00:01:10.879Z,75.44
2022-12-04T00:03:37.742Z,75.29
2022-12-04T00:06:12.702Z,75.39
2022-12-04T00:08:40.013Z,75.43
2022-12-04T00:11:08.545Z,75.60
2022-12-04T00:13:35.426Z,75.58
2022-12-04T00:16:07.605Z,75.63
2022-12-04T00:18:34.430Z,75.91
2022-12-04T00:21:04.361Z,75.68
2022-12-04T00:23:30.876Z,76.45
2022-12-04T00:26:04.752Z,75.94
2022-12-04T00:28:31.245Z,75.94
2022-12-04T00:30:57.544Z,76.11
2022-12-04T00:33:23.970Z,76.11
2022-12-04T00:36:01.098Z,76.12
2022-12-04T00:38:27.614Z,76.40
2022-12-04T00:40:54.739Z,76.30
2022-12-04T00:43:22.009Z,77.05
2022-12-04T00:45:48.864Z,76.39
2022-12-04T00:48:15.250Z,76.29
2022-12-04T00:50:41.730Z,75.98
2022-12-04T00:53:08.096Z,76.46
2022-12-04T00:55:37.986Z,76.58
2022-12-04T00:58:04.687Z,76.57
2022-12-04T01:00:31.488Z,76.90
2022-12-04T01:02:57.851Z,76.85
2022-12-04T01:05:24.196Z,76.56
2022-12-04T01:07:50.592Z,76.72
2022-12-04T01:10:16.984Z,76.59
2022-12-04T01:12:43.337Z,76.84
2022-12-04T01:15:10.078Z,77.09
2022-12-04T01:17:36.589Z,77.03
2022-12-04T01:20:04.122Z,77.00
2022-12-04T01:22:30.811Z,77.02
2022-12-04T01:24:57.418Z,76.80
2022-12-04T01:27:24.322Z,77.11
2022-12-04T01:29:50.637Z,77.21
2022-12-04T01:32:17.021Z,77.72
2022-12-04T01:34:43.405Z,77.58
2022-12-04T01:37:09.825Z,77.20
2022-12-04T01:39:37.249Z,76.95
2022-12-04T01:42:04.277Z,77.18
2022-12-04T01:44:31.732Z,77.20
2022-12-04T01:47:01.367Z,77.57
2022-12-04T01:49:37.341Z,77.31
2022-12-04T01:52:14.198Z,77.34
2022-12-04T01:54:45.329Z,77.32
2022-12-04T01:57:23.631Z,77.69
2022-12-04T01:59:57.536Z,77.82
2022-12-04T02:02:29.704Z,77.90
2022-12-04T02:04:56.349Z,77.82
2022-12-04T02:07:22.771Z,77.29
2022-12-04T02:09:54.163Z,77.83
2022-12-04T02:12:28.389Z,77.69
2022-12-04T02:15:17.646Z,76.73
2022-12-04T02:18:16.500Z,77.20
2022-12-04T02:20:58.392Z,77.21
2022-12-04T02:23:49.013Z,76.80
2022-12-04T02:26:27.480Z,77.09
2022-12-04T02:29:07.669Z,76.95
2022-12-04T02:31:57.021Z,77.31
2022-12-04T02:34:29.525Z,77.18
2022-12-04T02:37:01.817Z,77.38
2022-12-04T02:39:36.281Z,77.62
2022-12-04T02:42:11.966Z,77.57
2022-12-04T02:44:47.278Z,76.74
2022-12-04T02:47:19.060Z,76.88
2022-12-04T02:49:50.459Z,77.28
2022-12-04T02:52:22.745Z,77.30
2022-12-04T02:54:54.425Z,77.22
2022-12-04T02:57:27.979Z,77.21
2022-12-04T02:59:57.495Z,77.44
2022-12-04T03:02:59.325Z,77.77
2022-12-04T03:05:54.085Z,76.70
2022-12-04T03:08:26.096Z,76.92
2022-12-04T03:10:57.858Z,77.17
2022-12-04T03:13:30.673Z,77.23
2022-12-04T03:16:03.493Z,77.74
2022-12-04T03:18:36.213Z,77.51
2022-12-04T03:21:14.224Z,77.15
2022-12-04T03:23:53.495Z,77.57
2022-12-04T03:26:28.349Z,77.51
2022-12-04T03:29:05.127Z,77.33
2022-12-04T03:31:42.565Z,77.40
2022-12-04T03:34:12.817Z,77.29
2022-12-04T03:36:53.597Z,77.29
2022-12-04T03:39:29.851Z,77.08
2022-12-04T03:42:08.210Z,77.30
2022-12-04T03:44:52.897Z,77.32
2022-12-04T03:47:29.216Z,77.25
2022-12-04T03:50:04.882Z,77.15
2022-12-04T03:52:46.730Z,77.73
2022-12-04T03:55:24.915Z,77.54
2022-12-04T03:57:56.585Z,77.16
2022-12-04T04:00:23.178Z,77.46
2022-12-04T04:02:59.691Z,77.87
2022-12-04T04:05:29.159Z,77.64
2022-12-04T04:08:21.443Z,77.40
2022-12-04T04:10:50.221Z,77.45
2022-12-04T04:13:38.671Z,77.33
2022-12-04T04:16:27.028Z,77.53
2022-12-04T04:19:13.111Z,77.52
2022-12-04T04:22:02.316Z,77.58
2022-12-04T04:24:39.869Z,77.38
2022-12-04T04:27:06.459Z,77.40
2022-12-04T04:29:33.157Z,77.52
2022-12-04T04:32:10.274Z,77.71
2022-12-04T04:35:00.350Z,77.90
2022-12-04T04:37:54.750Z,77.33
2022-12-04T04:40:52.527Z,77.83
2022-12-04T04:43:28.114Z,77.65
2022-12-04T04:46:00.207Z,77.92
2022-12-04T04:48:36.576Z,77.82
2022-12-04T04:51:04.764Z,77.85
2022-12-04T04:53:36.641Z,77.60
2022-12-04T04:56:05.713Z,77.59
2022-12-04T04:58:32.097Z,77.94
2022-12-04T05:01:08.244Z,77.67
2022-12-04T05:03:35.205Z,78.04
2022-12-04T05:06:02.038Z,77.43
2022-12-04T05:08:28.422Z,77.37
2022-12-04T05:10:55.294Z,77.64
2022-12-04T05:13:21.729Z,78.04
2022-12-04T05:16:08.803Z,77.64
2022-12-04T05:18:35.761Z,77.92
2022-12-04T05:21:09.737Z,77.50
2022-12-04T05:23:36.098Z,77.78
2022-12-04T05:26:04.778Z,77.67
2022-12-04T05:28:31.254Z,77.55
2022-12-04T05:30:59.211Z,77.91
2022-12-04T05:33:25.704Z,77.88
2022-12-04T05:35:59.834Z,77.90
2022-12-04T05:38:26.359Z,77.91
2022-12-04T05:40:52.735Z,78.08
2022-12-04T05:43:19.434Z,78.22
2022-12-04T05:45:45.802Z,78.38
2022-12-04T05:48:12.101Z,78.42
2022-12-04T05:50:39.030Z,78.37
2022-12-04T05:53:05.324Z,78.66
2022-12-04T05:55:32.139Z,78.21
2022-12-04T05:57:58.521Z,78.28
2022-12-04T06:00:24.897Z,78.12
2022-12-04T06:02:51.244Z,78.50
2022-12-04T06:05:17.739Z,78.27
2022-12-04T06:07:44.169Z,78.16
2022-12-04T06:10:10.642Z,78.70
2022-12-04T06:12:36.993Z,78.76
2022-12-04T06:15:03.824Z,78.57
2022-12-04T06:17:30.773Z,79.22
2022-12-04T06:19:57.431Z,79.00
2022-12-04T06:22:24.066Z,79.24
2022-12-04T06:24:50.391Z,79.29
2022-12-04T06:27:32.006Z,79.27
2022-12-04T06:29:58.989Z,79.17
2022-12-04T06:32:25.495Z,78.96
2022-12-04T06:34:53.359Z,79.24
2022-12-04T06:37:21.529Z,78.70
2022-12-04T06:39:47.930Z,78.67
2022-12-04T06:42:14.267Z,78.36
2022-12-04T06:44:40.641Z,78.58
2022-12-04T06:47:08.159Z,78.64
2022-12-04T06:49:34.575Z,78.88
2022-12-04T06:52:00.892Z,78.81
2022-12-04T06:54:27.259Z,78.92
2022-12-04T06:56:53.585Z,78.97
2022-12-04T06:59:19.890Z,78.92
2022-12-04T07:01:46.177Z,78.86
2022-12-04T07:04:12.485Z,79.05
2022-12-04T07:06:39.903Z,78.67
2022-12-04T07:09:11.695Z,78.85
2022-12-04T07:11:39.956Z,79.06
2022-12-04T07:14:06.634Z,79.16
2022-12-04T07:16:39.902Z,78.66
2022-12-04T07:19:07.691Z,79.00
2022-12-04T07:21:34.608Z,78.64
2022-12-04T07:24:01.516Z,78.96
2022-12-04T07:26:29.808Z,78.54
2022-12-04T07:28:57.313Z,78.55
2022-12-04T07:31:25.343Z,78.98
2022-12-04T07:33:54.009Z,78.85
2022-12-04T07:36:22.111Z,78.21
2022-12-04T07:38:49.582Z,78.35
2022-12-04T07:41:17.056Z,78.35
2022-12-04T07:43:43.442Z,77.69
2022-12-04T07:46:18.627Z,78.22
2022-12-04T07:48:45.057Z,77.93
2022-12-04T07:51:20.208Z,77.85
2022-12-04T07:53:47.182Z,78.43
2022-12-04T07:56:14.469Z,77.95
2022-12-04T07:58:41.408Z,78.42
2022-12-04T08:01:13.360Z,78.33
2022-12-04T08:03:46.759Z,77.83
2022-12-04T08:06:14.490Z,77.60
2022-12-04T08:08:40.772Z,77.80
2022-12-04T08:11:09.613Z,77.86
2022-12-04T08:13:36.050Z,77.53
2022-12-04T08:16:05.174Z,77.42
2022-12-04T08:18:32.042Z,78.08
2022-12-04T08:21:12.964Z,78.25
2022-12-04T08:23:41.238Z,78.26
2022-12-04T08:26:08.697Z,77.66
2022-12-04T08:28:36.298Z,77.62
2022-12-04T08:31:04.964Z,77.11
2022-12-04T08:33:32.718Z,77.39
2022-12-04T08:35:59.361Z,77.01
2022-12-04T08:38:25.672Z,77.48
2022-12-04T08:40:52.011Z,77.35
2022-12-04T08:43:18.390Z,77.57
2022-12-04T08:45:44.760Z,77.56
2022-12-04T08:48:11.108Z,77.85
2022-12-04T08:50:37.914Z,77.70
2022-12-04T08:53:04.284Z,77.96
2022-12-04T08:55:30.586Z,78.05
2022-12-04T08:57:56.912Z,77.81
2022-12-04T09:00:25.793Z,77.51
2022-12-04T09:02:52.097Z,77.58
2022-12-04T09:05:18.461Z,77.52
2022-12-04T09:07:44.897Z,77.65
2022-12-04T09:10:12.177Z,77.78
2022-12-04T09:12:38.766Z,77.54
2022-12-04T09:15:05.730Z,77.51
2022-12-04T09:17:32.127Z,77.93
2022-12-04T09:20:01.229Z,77.63
2022-12-04T09:22:40.384Z,77.32
2022-12-04T09:25:14.382Z,77.45
2022-12-04T09:27:44.815Z,77.32
2022-12-04T09:30:12.818Z,77.26
2022-12-04T09:32:39.541Z,76.88
2022-12-04T09:35:06.894Z,76.80
2022-12-04T09:37:33.415Z,76.57
2022-12-04T09:39:59.778Z,76.54
2022-12-04T09:42:48.963Z,76.89
2022-12-04T09:45:22.287Z,77.47
2022-12-04T09:47:52.116Z,76.74
2022-12-04T09:50:20.502Z,76.33
2022-12-04T09:52:58.142Z,75.97
2022-12-04T09:55:39.874Z,76.21
2022-12-04T09:58:12.271Z,75.91
2022-12-04T10:00:42.825Z,75.77
2022-12-04T10:03:16.211Z,75.99
2022-12-04T10:05:49.585Z,76.30
2022-12-04T10:08:40.309Z,76.71
2022-12-04T10:11:32.623Z,76.30
2022-12-04T10:14:08.663Z,76.38
2022-12-04T10:16:53.194Z,76.00
2022-12-04T10:19:37.348Z,76.39
2022-12-04T10:22:18.877Z,75.67
2022-12-04T10:24:53.933Z,75.77
2022-12-04T10:27:33.746Z,75.76
2022-12-04T10:30:32.433Z,75.67
2022-12-04T10:33:27.934Z,76.14
2022-12-04T10:35:54.968Z,75.84
2022-12-04T10:38:52.390Z,76.15
2022-12-04T10:41:50.839Z,75.57
2022-12-04T10:44:20.756Z,75.69
2022-12-04T10:46:47.490Z,75.82
2022-12-04T10:49:19.461Z,75.72
2022-12-04T10:51:46.766Z,75.82
2022-12-04T10:54:19.643Z,75.36
2022-12-04T10:56:57.719Z,75.40
2022-12-04T10:59:24.317Z,74.93
2022-12-04T11:01:52.570Z,75.37
2022-12-04T11:04:30.720Z,75.15
2022-12-04T11:07:03.685Z,75.43
2022-12-04T11:09:31.063Z,74.71
2022-12-04T11:12:15.435Z,74.71
2022-12-04T11:14:46.673Z,74.60
2022-12-04T11:17:18.432Z,75.04
2022-12-04T11:19:46.961Z,75.18
2022-12-04T11:22:19.250Z,74.75
2022-12-04T11:24:55.886Z,74.34
2022-12-04T11:27:28.237Z,74.53
2022-12-04T11:29:56.107Z,74.28
2022-12-04T11:32:25.260Z,74.60
2022-12-04T11:34:55.348Z,74.66
2022-12-04T11:37:26.053Z,74.77
2022-12-04T11:39:53.935Z,74.64
2022-12-04T11:42:29.223Z,74.03
2022-12-04T11:44:57.103Z,74.04
2022-12-04T11:47:26.102Z,74.15
2022-12-04T11:50:13.058Z,74.19
2022-12-04T11:53:03.004Z,73.78
2022-12-04T11:56:01.685Z,73.55
2022-12-04T11:58:49.697Z,73.87
2022-12-04T12:01:38.603Z,73.66
2022-12-04T12:04:26.418Z,73.08
2022-12-04T12:07:04.735Z,72.93
2022-12-04T12:09:49.416Z,73.23
2022-12-04T12:12:31.111Z,73.22
2022-12-04T12:15:26.970Z,73.14
2022-12-04T12:18:22.444Z,74.11
2022-12-04T12:21:09.421Z,74.20
2022-12-04T12:24:07.322Z,73.98
2022-12-04T12:26:54.690Z,74.04
2022-12-04T12:29:29.959Z,73.66
2022-12-04T12:32:23.567Z,74.62
2022-12-04T12:34:50.990Z,74.33
2022-12-04T12:37:30.823Z,74.33
2022-12-04T12:40:04.376Z,74.63
2022-12-04T12:42:40.555Z,74.64
2022-12-04T12:45:22.314Z,74.89
2022-12-04T12:47:54.039Z,74.54
2022-12-04T12:50:24.407Z,74.83
2022-12-04T12:53:03.345Z,74.55
2022-12-04T12:56:12.843Z,74.42
2022-12-04T12:58:55.676Z,74.68
2022-12-04T13:01:42.438Z,74.69
2022-12-04T13:04:14.900Z,75.11
2022-12-04T13:06:44.045Z,74.33
2022-12-04T13:09:26.083Z,74.79
2022-12-04T13:11:58.407Z,75.22
2022-12-04T13:14:24.889Z,75.03
2022-12-04T13:17:00.628Z,75.59
2022-12-04T13:19:34.743Z,74.80
2022-12-04T13:22:22.800Z,75.16
2022-12-04T13:24:58.112Z,75.20
2022-12-04T13:27:39.766Z,75.92
2022-12-04T13:30:50.916Z,75.37
2022-12-04T13:33:44.548Z,75.76
2022-12-04T13:36:23.076Z,75.83
2022-12-04T13:39:08.205Z,75.74
2022-12-04T13:41:38.043Z,75.28
2022-12-04T13:44:14.529Z,76.37
2022-12-04T13:46:54.517Z,76.12
2022-12-04T13:49:20.853Z,76.39
2022-12-04T13:51:48.696Z,76.69
2022-12-04T13:54:14.969Z,76.92
2022-12-04T13:56:43.746Z,77.23
2022-12-04T13:59:28.457Z,76.44
2022-12-04T14:02:00.264Z,76.83
2022-12-04T14:04:45.703Z,76.90
2022-12-04T14:07:30.478Z,77.31
2022-12-04T14:09:59.308Z,77.12
2022-12-04T14:12:30.164Z,77.18
2022-12-04T14:14:59.994Z,77.34
2022-12-04T14:17:30.582Z,77.01
2022-12-04T14:20:07.860Z,76.81
2022-12-04T14:22:34.639Z,77.14
2022-12-04T14:25:13.298Z,77.16
2022-12-04T14:27:42.697Z,77.28
2022-12-04T14:30:37.605Z,77.04
2022-12-04T14:33:22.548Z,77.30
2022-12-04T14:36:24.907Z,77.93
2022-12-04T14:39:26.022Z,77.94
2022-12-04T14:41:55.952Z,77.21
2022-12-04T14:44:29.799Z,76.81
2022-12-04T14:47:02.675Z,77.54
2022-12-04T14:49:47.677Z,77.51
2022-12-04T14:52:24.236Z,77.65
2022-12-04T14:55:07.337Z,77.63
2022-12-04T14:57:57.729Z,77.53
2022-12-04T15:00:24.726Z,77.95
2022-12-04T15:02:55.908Z,77.70
2022-12-04T15:05:27.120Z,77.34
2022-12-04T15:07:58.533Z,77.48
2022-12-04T15:10:49.269Z,77.96
2022-12-04T15:13:27.454Z,77.74
2022-12-04T15:15:54.033Z,77.36
2022-12-04T15:18:20.540Z,77.01
2022-12-04T15:20:49.891Z,77.16
2022-12-04T15:23:21.362Z,77.52
2022-12-04T15:25:53.131Z,77.75
2022-12-04T15:28:28.946Z,77.67
2022-12-04T15:30:57.891Z,77.24
2022-12-04T15:33:30.628Z,77.85
2022-12-04T15:36:02.375Z,77.72
2022-12-04T15:38:29.149Z,78.05
2022-12-04T15:40:58.226Z,78.14
2022-12-04T15:43:27.637Z,78.43
2022-12-04T15:45:54.499Z,78.45
2022-12-04T15:48:28.456Z,78.99
2022-12-04T15:51:00.657Z,78.91
2022-12-04T15:53:30.993Z,78.99
2022-12-04T15:56:02.326Z,78.87
2022-12-04T15:58:31.589Z,79.19
2022-12-04T16:01:09.700Z,79.69
2022-12-04T16:03:42.403Z,79.89
2022-12-04T16:06:17.565Z,80.69
2022-12-04T16:08:46.396Z,81.00
2022-12-04T16:11:18.774Z,81.48
2022-12-04T16:13:45.056Z,81.56
2022-12-04T16:16:16.727Z,81.19
2022-12-04T16:18:43.405Z,81.03
2022-12-04T16:21:17.016Z,81.52
2022-12-04T16:23:44.014Z,81.75
2022-12-04T16:26:12.687Z,82.13
2022-12-04T16:28:39.041Z,81.98
2022-12-04T16:31:05.583Z,82.00
2022-12-04T16:33:31.984Z,82.19
2022-12-04T16:35:58.283Z,82.02
2022-12-04T16:38:24.991Z,81.72
2022-12-04T16:40:51.322Z,81.84
2022-12-04T16:43:19.759Z,81.67
2022-12-04T16:45:50.797Z,82.02
2022-12-04T16:48:17.147Z,81.41
2022-12-04T16:50:44.674Z,81.59
2022-12-04T16:53:19.685Z,81.23
2022-12-04T16:55:51.217Z,81.39
2022-12-04T16:58:19.700Z,81.36
2022-12-04T17:00:52.902Z,81.00
2022-12-04T17:03:26.683Z,81.32
2022-12-04T17:05:53.145Z,81.63
2022-12-04T17:08:20.068Z,82.04
2022-12-04T17:10:47.320Z,81.56
2022-12-04T17:13:13.853Z,81.28
2022-12-04T17:15:40.279Z,80.99
2022-12-04T17:18:11.980Z,80.80
2022-12-04T17:20:42.910Z,80.51
2022-12-04T17:23:10.667Z,79.69
2022-12-04T17:25:37.258Z,80.31
2022-12-04T17:28:03.720Z,80.73
2022-12-04T17:30:35.772Z,80.30
2022-12-04T17:33:02.797Z,80.36
2022-12-04T17:35:29.400Z,80.84
2022-12-04T17:37:58.360Z,81.02
2022-12-04T17:40:28.543Z,81.47
2022-12-04T17:42:54.817Z,81.43
2022-12-04T17:45:21.085Z,82.05
2022-12-04T17:47:47.364Z,82.85
2022-12-04T17:50:13.726Z,83.20
2022-12-04T17:52:40.040Z,82.94
2022-12-04T17:55:08.901Z,83.13
2022-12-04T17:57:35.417Z,83.65
2022-12-04T18:00:01.779Z,84.56
2022-12-04T18:02:28.151Z,85.33
2022-12-04T18:04:55.327Z,86.09
2022-12-04T18:07:21.950Z,86.07
2022-12-04T18:09:48.254Z,85.74
2022-12-04T18:12:14.581Z,84.87
2022-12-04T18:14:41.013Z,84.88
2022-12-04T18:17:07.323Z,84.90
2022-12-04T18:19:33.719Z,85.17
2022-12-04T18:22:00.096Z,84.93
2022-12-04T18:24:26.954Z,85.20
2022-12-04T18:26:53.689Z,84.82
2022-12-04T18:29:22.911Z,84.90
2022-12-04T18:31:50.904Z,84.86
2022-12-04T18:34:17.667Z,85.47
2022-12-04T18:36:45.391Z,85.55
2022-12-04T18:39:14.931Z,85.63
2022-12-04T18:41:41.679Z,86.39
2022-12-04T18:44:08.036Z,86.95
2022-12-04T18:46:34.432Z,87.02
2022-12-04T18:49:03.608Z,87.64
2022-12-04T18:51:39.463Z,87.75
2022-12-04T18:54:12.570Z,86.74
2022-12-04T18:56:39.212Z,87.27
2022-12-04T18:59:17.384Z,87.11
2022-12-04T19:01:44.101Z,87.66
2022-12-04T19:04:12.725Z,87.61
2022-12-04T19:06:50.589Z,87.54
2022-12-04T19:09:19.920Z,87.93
2022-12-04T19:11:46.819Z,88.10
2022-12-04T19:14:22.984Z,87.79
2022-12-04T19:16:50.518Z,88.09
2022-12-04T19:19:17.651Z,88.47
2022-12-04T19:21:44.377Z,88.89
2022-12-04T19:24:11.478Z,88.26
2022-12-04T19:26:38.169Z,88.39
2022-12-04T19:29:06.125Z,88.56
2022-12-04T19:31:34.989Z,88.43
2022-12-04T19:34:01.520Z,87.68
2022-12-04T19:36:29.898Z,86.88
2022-12-04T19:38:59.756Z,86.87
2022-12-04T19:41:31.286Z,86.85
2022-12-04T19:43:59.940Z,86.21
2022-12-04T19:46:29.927Z,86.07
2022-12-04T19:49:00.201Z,86.04
2022-12-04T19:51:26.610Z,85.74
2022-12-04T19:53:54.764Z,85.34
2022-12-04T19:56:24.370Z,86.10
2022-12-04T19:58:52.229Z,86.22
2022-12-04T20:01:20.608Z,86.64
2022-12-04T20:03:47.089Z,87.27
2022-12-04T20:06:16.188Z,87.83
2022-12-04T20:08:42.880Z,88.62
2022-12-04T20:11:19.359Z,88.67
2022-12-04T20:13:47.529Z,88.92
2022-12-04T20:16:16.875Z,88.77
2022-12-04T20:18:43.602Z,88.72
2022-12-04T20:21:11.848Z,88.83
2022-12-04T20:23:39.782Z,88.91
2022-12-04T20:26:08.333Z,88.83
2022-12-04T20:28:36.289Z,88.93
2022-12-04T20:31:35.464Z,88.94
2022-12-04T20:34:04.125Z,88.75
2022-12-04T20:36:31.618Z,88.83
2022-12-04T20:38:59.166Z,87.52
2022-12-04T20:41:27.746Z,87.77
2022-12-04T20:43:54.600Z,87.92
2022-12-04T20:46:31.507Z,88.33
2022-12-04T20:48:59.032Z,88.57
2022-12-04T20:51:28.492Z,88.82
2022-12-04T20:53:57.983Z,88.74
2022-12-04T20:56:26.368Z,88.70
2022-12-04T20:59:04.545Z,88.64
2022-12-04T21:01:31.010Z,88.90
2022-12-04T21:03:59.164Z,88.98
2022-12-04T21:06:37.043Z,89.24
2022-12-04T21:09:06.405Z,88.66
2022-12-04T21:11:35.972Z,89.14
2022-12-04T21:14:23.490Z,89.34
2022-12-04T21:16:50.423Z,89.10
2022-12-04T21:19:19.541Z,88.87
2022-12-04T21:21:46.365Z,89.15
2022-12-04T21:24:14.813Z,89.26
2022-12-04T21:26:41.342Z,89.63
2022-12-04T21:29:08.273Z,89.52
2022-12-04T21:31:35.998Z,89.59
2022-12-04T21:34:05.081Z,89.35
2022-12-04T21:36:31.428Z,89.53
2022-12-04T21:38:58.146Z,89.73
2022-12-04T21:41:43.778Z,89.83
2022-12-04T21:44:15.882Z,90.12
2022-12-04T21:46:43.623Z,89.93
2022-12-04T21:49:10.672Z,89.68
2022-12-04T21:51:56.780Z,88.56
2022-12-04T21:54:23.553Z,88.97
2022-12-04T21:56:49.942Z,89.21
2022-12-04T21:59:16.338Z,89.53
2022-12-04T22:01:45.494Z,89.36
2022-12-04T22:04:12.141Z,88.87
2022-12-04T22:06:38.492Z,89.03
2022-12-04T22:09:10.475Z,89.81
2022-12-04T22:11:38.087Z,89.78
2022-12-04T22:14:04.597Z,89.05
2022-12-04T22:16:32.849Z,89.27
2022-12-04T22:19:01.002Z,89.47
2022-12-04T22:21:28.493Z,89.51
2022-12-04T22:24:01.785Z,89.23
2022-12-04T22:26:29.732Z,89.80
2022-12-04T22:28:56.627Z,89.86
2022-12-04T22:31:25.812Z,90.43
2022-12-04T22:33:54.333Z,90.43
2022-12-04T22:36:23.107Z,90.29
2022-12-04T22:39:08.701Z,90.57
2022-12-04T22:41:36.498Z,90.77
2022-12-04T22:44:03.137Z,91.15
2022-12-04T22:46:29.558Z,91.17
2022-12-04T22:48:55.967Z,90.94
2022-12-04T22:51:22.509Z,90.92
2022-12-04T22:53:52.424Z,90.87
2022-12-04T22:56:24.524Z,90.33
2022-12-04T22:58:51.985Z,90.18
2022-12-04T23:01:23.108Z,90.51
2022-12-04T23:03:50.430Z,90.25
2022-12-04T23:06:19.092Z,90.59
2022-12-04T23:08:45.921Z,90.67
2022-12-04T23:11:20.606Z,90.45
2022-12-04T23:13:51.976Z,90.31
2022-12-04T23:16:20.485Z,90.32
2022-12-04T23:18:47.310Z,90.55
2022-12-04T23:21:14.489Z,90.69
2022-12-04T23:23:43.270Z,91.04
2022-12-04T23:26:12.944Z,90.56
2022-12-04T23:28:39.401Z,89.99
2022-12-04T23:31:05.999Z,89.54
2022-12-04T23:33:32.904Z,89.54
2022-12-04T23:36:01.356Z,89.49
2022-12-04T23:38:28.904Z,89.67
2022-12-04T23:41:10.360Z,89.44
2022-12-04T23:43:36.782Z,90.22
2022-12-04T23:46:10.363Z,89.72
2022-12-04T23:48:38.074Z,89.82
2022-12-04T23:51:04.518Z,89.99
2022-12-04T23:53:30.813Z,90.25
2022-12-04T23:55:59.426Z,90.27
2022-12-04T23:58:26.106Z,89.85
